<?xml version="1.0" encoding="UTF-8"?>
<gpx xmlns="http://www.topografix.com/GPX/1/1" xmlns:xsi="http://www.w3.org/2001/XMLSchema-instance" version="1.1" xsi:schemaLocation="http://www.topografix.com/GPX/1/1 http://www.topografix.com/GPX/1/1/gpx.xsd">
  <metadata>
    <name>Harryman Triathlon 2022 - Olympic Aquabike</name>
  </metadata>
  <trk>
    <name>Harryman Triathlon 2022 - Olympic Aquabike</name>
    <trkseg>
      <trkpt lat="41.235282" lon="-74.070417">
        <ele>309.184109</ele>
        <time>2024-05-18T10:50:00.000Z</time>
      </trkpt>
      <trkpt lat="41.235291" lon="-74.070413">
        <ele>309.184108</ele>
        <time>2024-05-18T10:50:00.000Z</time>
      </trkpt>
      <trkpt lat="41.23526" lon="-74.070363">
        <ele>309.184099</ele>
        <time>2024-05-18T10:50:01.000Z</time>
      </trkpt>
      <trkpt lat="41.23623" lon="-74.069997">
        <ele>309.35348</ele>
        <time>2024-05-18T10:50:12.000Z</time>
      </trkpt>
      <trkpt lat="41.236299" lon="-74.070025">
        <ele>309.41834</ele>
        <time>2024-05-18T10:50:13.000Z</time>
      </trkpt>
      <trkpt lat="41.23652" lon="-74.069849">
        <ele>309.705391</ele>
        <time>2024-05-18T10:50:16.000Z</time>
      </trkpt>
      <trkpt lat="41.237276" lon="-74.069468">
        <ele>310.604464</ele>
        <time>2024-05-18T10:50:25.000Z</time>
      </trkpt>
      <trkpt lat="41.237614" lon="-74.069182">
        <ele>311.061705</ele>
        <time>2024-05-18T10:50:29.000Z</time>
      </trkpt>
      <trkpt lat="41.237987" lon="-74.068522">
        <ele>311.780875</ele>
        <time>2024-05-18T10:50:36.000Z</time>
      </trkpt>
      <trkpt lat="41.238245" lon="-74.067757">
        <ele>312.547137</ele>
        <time>2024-05-18T10:50:43.000Z</time>
      </trkpt>
      <trkpt lat="41.238878" lon="-74.066312">
        <ele>313.75307</ele>
        <time>2024-05-18T10:50:57.000Z</time>
      </trkpt>
      <trkpt lat="41.239108" lon="-74.066032">
        <ele>313.975008</ele>
        <time>2024-05-18T10:51:00.000Z</time>
      </trkpt>
      <trkpt lat="41.2394" lon="-74.065971">
        <ele>314.181427</ele>
        <time>2024-05-18T10:51:03.000Z</time>
      </trkpt>
      <trkpt lat="41.239541" lon="-74.066015">
        <ele>314.289319</ele>
        <time>2024-05-18T10:51:05.000Z</time>
      </trkpt>
      <trkpt lat="41.239769" lon="-74.066174">
        <ele>314.474481</ele>
        <time>2024-05-18T10:51:08.000Z</time>
      </trkpt>
      <trkpt lat="41.239962" lon="-74.066601">
        <ele>314.666906</ele>
        <time>2024-05-18T10:51:12.000Z</time>
      </trkpt>
      <trkpt lat="41.240074" lon="-74.067184">
        <ele>314.803939</ele>
        <time>2024-05-18T10:51:17.000Z</time>
      </trkpt>
      <trkpt lat="41.240101" lon="-74.068049">
        <ele>315.005609</ele>
        <time>2024-05-18T10:51:24.000Z</time>
      </trkpt>
      <trkpt lat="41.239996" lon="-74.068903">
        <ele>315.255048</ele>
        <time>2024-05-18T10:51:31.000Z</time>
      </trkpt>
      <trkpt lat="41.239813" lon="-74.069428">
        <ele>315.561652</ele>
        <time>2024-05-18T10:51:36.000Z</time>
      </trkpt>
      <trkpt lat="41.239815" lon="-74.069438">
        <ele>315.56387</ele>
        <time>2024-05-18T10:51:36.000Z</time>
      </trkpt>
      <trkpt lat="41.239011" lon="-74.071111">
        <ele>317.066803</ele>
        <time>2024-05-18T10:51:53.000Z</time>
      </trkpt>
      <trkpt lat="41.238853" lon="-74.071415">
        <ele>317.710945</ele>
        <time>2024-05-18T10:51:56.000Z</time>
      </trkpt>
      <trkpt lat="41.238487" lon="-74.072562">
        <ele>319.95328</ele>
        <time>2024-05-18T10:52:06.000Z</time>
      </trkpt>
      <trkpt lat="41.238406" lon="-74.072958">
        <ele>320.705309</ele>
        <time>2024-05-18T10:52:09.000Z</time>
      </trkpt>
      <trkpt lat="41.238317" lon="-74.073799">
        <ele>323.635811</ele>
        <time>2024-05-18T10:52:16.000Z</time>
      </trkpt>
      <trkpt lat="41.238322" lon="-74.07532">
        <ele>329.055342</ele>
        <time>2024-05-18T10:52:29.000Z</time>
      </trkpt>
      <trkpt lat="41.238338" lon="-74.075606">
        <ele>330.037412</ele>
        <time>2024-05-18T10:52:31.000Z</time>
      </trkpt>
      <trkpt lat="41.238294" lon="-74.076524">
        <ele>333.268875</ele>
        <time>2024-05-18T10:52:39.000Z</time>
      </trkpt>
      <trkpt lat="41.2381" lon="-74.077686">
        <ele>337.435658</ele>
        <time>2024-05-18T10:52:49.000Z</time>
      </trkpt>
      <trkpt lat="41.237879" lon="-74.078385">
        <ele>339.471357</ele>
        <time>2024-05-18T10:52:55.000Z</time>
      </trkpt>
      <trkpt lat="41.237856" lon="-74.078439">
        <ele>339.657401</ele>
        <time>2024-05-18T10:52:56.000Z</time>
      </trkpt>
      <trkpt lat="41.237501" lon="-74.079239">
        <ele>342.0945</ele>
        <time>2024-05-18T10:53:04.000Z</time>
      </trkpt>
      <trkpt lat="41.237042" lon="-74.079958">
        <ele>344.270152</ele>
        <time>2024-05-18T10:53:12.000Z</time>
      </trkpt>
      <trkpt lat="41.235471" lon="-74.081707">
        <ele>347.905474</ele>
        <time>2024-05-18T10:53:35.000Z</time>
      </trkpt>
      <trkpt lat="41.234987" lon="-74.082443">
        <ele>348.414001</ele>
        <time>2024-05-18T10:53:43.000Z</time>
      </trkpt>
      <trkpt lat="41.234549" lon="-74.083381">
        <ele>348.611021</ele>
        <time>2024-05-18T10:53:52.000Z</time>
      </trkpt>
      <trkpt lat="41.233779" lon="-74.085752">
        <ele>345.667088</ele>
        <time>2024-05-18T10:54:14.000Z</time>
      </trkpt>
      <trkpt lat="41.233326" lon="-74.086733">
        <ele>342.511998</ele>
        <time>2024-05-18T10:54:24.000Z</time>
      </trkpt>
      <trkpt lat="41.232792" lon="-74.087648">
        <ele>338.918933</ele>
        <time>2024-05-18T10:54:34.000Z</time>
      </trkpt>
      <trkpt lat="41.23194" lon="-74.088656">
        <ele>333.03306</ele>
        <time>2024-05-18T10:54:47.000Z</time>
      </trkpt>
      <trkpt lat="41.230997" lon="-74.089429">
        <ele>329.494946</ele>
        <time>2024-05-18T10:54:59.000Z</time>
      </trkpt>
      <trkpt lat="41.23026" lon="-74.089844">
        <ele>327.636455</ele>
        <time>2024-05-18T10:55:08.000Z</time>
      </trkpt>
      <trkpt lat="41.228604" lon="-74.090521">
        <ele>326.669273</ele>
        <time>2024-05-18T10:55:27.000Z</time>
      </trkpt>
      <trkpt lat="41.227868" lon="-74.090908">
        <ele>326.618307</ele>
        <time>2024-05-18T10:55:36.000Z</time>
      </trkpt>
      <trkpt lat="41.226851" lon="-74.09167">
        <ele>326.697661</ele>
        <time>2024-05-18T10:55:49.000Z</time>
      </trkpt>
      <trkpt lat="41.226539" lon="-74.091986">
        <ele>326.478818</ele>
        <time>2024-05-18T10:55:53.000Z</time>
      </trkpt>
      <trkpt lat="41.225776" lon="-74.092879">
        <ele>325.539819</ele>
        <time>2024-05-18T10:56:04.000Z</time>
      </trkpt>
      <trkpt lat="41.225217" lon="-74.093715">
        <ele>324.594278</ele>
        <time>2024-05-18T10:56:13.000Z</time>
      </trkpt>
      <trkpt lat="41.223961" lon="-74.095791">
        <ele>322.282662</ele>
        <time>2024-05-18T10:56:35.000Z</time>
      </trkpt>
      <trkpt lat="41.223219" lon="-74.096703">
        <ele>322.135394</ele>
        <time>2024-05-18T10:56:46.000Z</time>
      </trkpt>
      <trkpt lat="41.222654" lon="-74.097232">
        <ele>322.795674</ele>
        <time>2024-05-18T10:56:54.000Z</time>
      </trkpt>
      <trkpt lat="41.221056" lon="-74.098819">
        <ele>326.469314</ele>
        <time>2024-05-18T10:57:16.000Z</time>
      </trkpt>
      <trkpt lat="41.220688" lon="-74.099273">
        <ele>327.499757</ele>
        <time>2024-05-18T10:57:22.000Z</time>
      </trkpt>
      <trkpt lat="41.220048" lon="-74.100342">
        <ele>329.204081</ele>
        <time>2024-05-18T10:57:33.000Z</time>
      </trkpt>
      <trkpt lat="41.219718" lon="-74.100975">
        <ele>329.634339</ele>
        <time>2024-05-18T10:57:39.000Z</time>
      </trkpt>
      <trkpt lat="41.219062" lon="-74.102457">
        <ele>329.654705</ele>
        <time>2024-05-18T10:57:53.000Z</time>
      </trkpt>
      <trkpt lat="41.218594" lon="-74.103894">
        <ele>327.80683</ele>
        <time>2024-05-18T10:58:06.000Z</time>
      </trkpt>
      <trkpt lat="41.218036" lon="-74.105954">
        <ele>324.165424</ele>
        <time>2024-05-18T10:58:24.000Z</time>
      </trkpt>
      <trkpt lat="41.217775" lon="-74.107577">
        <ele>320.707994</ele>
        <time>2024-05-18T10:58:38.000Z</time>
      </trkpt>
      <trkpt lat="41.217269" lon="-74.111569">
        <ele>311.639549</ele>
        <time>2024-05-18T10:59:12.000Z</time>
      </trkpt>
      <trkpt lat="41.216889" lon="-74.113586">
        <ele>309.789911</ele>
        <time>2024-05-18T10:59:29.000Z</time>
      </trkpt>
      <trkpt lat="41.216624" lon="-74.114668">
        <ele>308.680259</ele>
        <time>2024-05-18T10:59:39.000Z</time>
      </trkpt>
      <trkpt lat="41.216168" lon="-74.116034">
        <ele>306.216303</ele>
        <time>2024-05-18T10:59:52.000Z</time>
      </trkpt>
      <trkpt lat="41.21616" lon="-74.11607">
        <ele>306.056863</ele>
        <time>2024-05-18T10:59:52.000Z</time>
      </trkpt>
      <trkpt lat="41.216017" lon="-74.116496">
        <ele>304.32945</ele>
        <time>2024-05-18T10:59:56.000Z</time>
      </trkpt>
      <trkpt lat="41.215514" lon="-74.117652">
        <ele>299.351716</ele>
        <time>2024-05-18T11:00:07.000Z</time>
      </trkpt>
      <trkpt lat="41.213857" lon="-74.121138">
        <ele>275.501645</ele>
        <time>2024-05-18T11:00:42.000Z</time>
      </trkpt>
      <trkpt lat="41.213408" lon="-74.12243">
        <ele>269.934383</ele>
        <time>2024-05-18T11:00:54.000Z</time>
      </trkpt>
      <trkpt lat="41.214436" lon="-74.123316">
        <ele>267.015777</ele>
        <time>2024-05-18T11:01:08.000Z</time>
      </trkpt>
      <trkpt lat="41.215178" lon="-74.123653">
        <ele>267.612027</ele>
        <time>2024-05-18T11:01:17.000Z</time>
      </trkpt>
      <trkpt lat="41.216153" lon="-74.123732">
        <ele>268.996124</ele>
        <time>2024-05-18T11:01:28.000Z</time>
      </trkpt>
      <trkpt lat="41.21726" lon="-74.123369">
        <ele>273.570863</ele>
        <time>2024-05-18T11:01:41.000Z</time>
      </trkpt>
      <trkpt lat="41.218128" lon="-74.122896">
        <ele>277.758232</ele>
        <time>2024-05-18T11:01:51.000Z</time>
      </trkpt>
      <trkpt lat="41.218813" lon="-74.122359">
        <ele>280.419849</ele>
        <time>2024-05-18T11:02:00.000Z</time>
      </trkpt>
      <trkpt lat="41.220307" lon="-74.120622">
        <ele>283.922061</ele>
        <time>2024-05-18T11:02:22.000Z</time>
      </trkpt>
      <trkpt lat="41.221523" lon="-74.11923">
        <ele>283.549014</ele>
        <time>2024-05-18T11:02:40.000Z</time>
      </trkpt>
      <trkpt lat="41.222539" lon="-74.118147">
        <ele>282.805146</ele>
        <time>2024-05-18T11:02:54.000Z</time>
      </trkpt>
      <trkpt lat="41.223953" lon="-74.116857">
        <ele>282.587094</ele>
        <time>2024-05-18T11:03:13.000Z</time>
      </trkpt>
      <trkpt lat="41.22495" lon="-74.116107">
        <ele>282.257778</ele>
        <time>2024-05-18T11:03:26.000Z</time>
      </trkpt>
      <trkpt lat="41.226452" lon="-74.115231">
        <ele>280.867447</ele>
        <time>2024-05-18T11:03:44.000Z</time>
      </trkpt>
      <trkpt lat="41.227713" lon="-74.114661">
        <ele>278.594379</ele>
        <time>2024-05-18T11:03:59.000Z</time>
      </trkpt>
      <trkpt lat="41.228436" lon="-74.114475">
        <ele>277.072813</ele>
        <time>2024-05-18T11:04:07.000Z</time>
      </trkpt>
      <trkpt lat="41.230043" lon="-74.114232">
        <ele>273.427438</ele>
        <time>2024-05-18T11:04:25.000Z</time>
      </trkpt>
      <trkpt lat="41.231231" lon="-74.113946">
        <ele>269.83874</ele>
        <time>2024-05-18T11:04:38.000Z</time>
      </trkpt>
      <trkpt lat="41.232211" lon="-74.11343">
        <ele>266.372762</ele>
        <time>2024-05-18T11:04:50.000Z</time>
      </trkpt>
      <trkpt lat="41.233025" lon="-74.112741">
        <ele>263.595039</ele>
        <time>2024-05-18T11:05:01.000Z</time>
      </trkpt>
      <trkpt lat="41.233736" lon="-74.11188">
        <ele>261.493268</ele>
        <time>2024-05-18T11:05:12.000Z</time>
      </trkpt>
      <trkpt lat="41.233796" lon="-74.111737">
        <ele>261.633302</ele>
        <time>2024-05-18T11:05:13.000Z</time>
      </trkpt>
      <trkpt lat="41.233824" lon="-74.111454">
        <ele>261.856605</ele>
        <time>2024-05-18T11:05:15.000Z</time>
      </trkpt>
      <trkpt lat="41.233815" lon="-74.111185">
        <ele>262.084207</ele>
        <time>2024-05-18T11:05:17.000Z</time>
      </trkpt>
      <trkpt lat="41.233907" lon="-74.110984">
        <ele>262.295856</ele>
        <time>2024-05-18T11:05:19.000Z</time>
      </trkpt>
      <trkpt lat="41.234031" lon="-74.110848">
        <ele>262.470413</ele>
        <time>2024-05-18T11:05:21.000Z</time>
      </trkpt>
      <trkpt lat="41.234182" lon="-74.110848">
        <ele>262.627748</ele>
        <time>2024-05-18T11:05:23.000Z</time>
      </trkpt>
      <trkpt lat="41.23422" lon="-74.110858">
        <ele>262.677059</ele>
        <time>2024-05-18T11:05:23.000Z</time>
      </trkpt>
      <trkpt lat="41.234514" lon="-74.110706">
        <ele>263.018993</ele>
        <time>2024-05-18T11:05:27.000Z</time>
      </trkpt>
      <trkpt lat="41.235775" lon="-74.10862">
        <ele>271.584199</ele>
        <time>2024-05-18T11:05:49.000Z</time>
      </trkpt>
      <trkpt lat="41.236365" lon="-74.107544">
        <ele>276.145104</ele>
        <time>2024-05-18T11:06:00.000Z</time>
      </trkpt>
      <trkpt lat="41.236963" lon="-74.10639">
        <ele>280.433384</ele>
        <time>2024-05-18T11:06:12.000Z</time>
      </trkpt>
      <trkpt lat="41.239276" lon="-74.103282">
        <ele>285.60961</ele>
        <time>2024-05-18T11:06:49.000Z</time>
      </trkpt>
      <trkpt lat="41.239434" lon="-74.103108">
        <ele>285.497931</ele>
        <time>2024-05-18T11:06:51.000Z</time>
      </trkpt>
      <trkpt lat="41.239923" lon="-74.102733">
        <ele>284.404856</ele>
        <time>2024-05-18T11:06:57.000Z</time>
      </trkpt>
      <trkpt lat="41.240791" lon="-74.102182">
        <ele>282.574211</ele>
        <time>2024-05-18T11:07:08.000Z</time>
      </trkpt>
      <trkpt lat="41.240897" lon="-74.102133">
        <ele>282.379924</ele>
        <time>2024-05-18T11:07:09.000Z</time>
      </trkpt>
      <trkpt lat="41.241037" lon="-74.102078">
        <ele>282.045093</ele>
        <time>2024-05-18T11:07:11.000Z</time>
      </trkpt>
      <trkpt lat="41.241064" lon="-74.102064">
        <ele>281.970665</ele>
        <time>2024-05-18T11:07:11.000Z</time>
      </trkpt>
      <trkpt lat="41.241545" lon="-74.101908">
        <ele>280.804032</ele>
        <time>2024-05-18T11:07:17.000Z</time>
      </trkpt>
      <trkpt lat="41.242841" lon="-74.101665">
        <ele>277.980264</ele>
        <time>2024-05-18T11:07:32.000Z</time>
      </trkpt>
      <trkpt lat="41.243172" lon="-74.101516">
        <ele>277.873321</ele>
        <time>2024-05-18T11:07:36.000Z</time>
      </trkpt>
      <trkpt lat="41.244249" lon="-74.101184">
        <ele>277.540906</ele>
        <time>2024-05-18T11:07:48.000Z</time>
      </trkpt>
      <trkpt lat="41.244618" lon="-74.101167">
        <ele>277.579697</ele>
        <time>2024-05-18T11:07:52.000Z</time>
      </trkpt>
      <trkpt lat="41.245017" lon="-74.101188">
        <ele>277.851683</ele>
        <time>2024-05-18T11:07:56.000Z</time>
      </trkpt>
      <trkpt lat="41.246723" lon="-74.101452">
        <ele>279.311363</ele>
        <time>2024-05-18T11:08:15.000Z</time>
      </trkpt>
      <trkpt lat="41.24918" lon="-74.101526">
        <ele>283.206544</ele>
        <time>2024-05-18T11:08:42.000Z</time>
      </trkpt>
      <trkpt lat="41.250501" lon="-74.10156">
        <ele>286.581963</ele>
        <time>2024-05-18T11:08:57.000Z</time>
      </trkpt>
      <trkpt lat="41.251604" lon="-74.101673">
        <ele>290.096863</ele>
        <time>2024-05-18T11:09:09.000Z</time>
      </trkpt>
      <trkpt lat="41.253546" lon="-74.102156">
        <ele>298.083946</ele>
        <time>2024-05-18T11:09:31.000Z</time>
      </trkpt>
      <trkpt lat="41.253891" lon="-74.102085">
        <ele>300.190787</ele>
        <time>2024-05-18T11:09:35.000Z</time>
      </trkpt>
      <trkpt lat="41.254517" lon="-74.10183">
        <ele>304.063031</ele>
        <time>2024-05-18T11:09:42.000Z</time>
      </trkpt>
      <trkpt lat="41.25695" lon="-74.100701">
        <ele>320.446936</ele>
        <time>2024-05-18T11:10:11.000Z</time>
      </trkpt>
      <trkpt lat="41.257874" lon="-74.100443">
        <ele>321.332905</ele>
        <time>2024-05-18T11:10:21.000Z</time>
      </trkpt>
      <trkpt lat="41.259347" lon="-74.099698">
        <ele>320.189248</ele>
        <time>2024-05-18T11:10:39.000Z</time>
      </trkpt>
      <trkpt lat="41.260321" lon="-74.099214">
        <ele>318.032085</ele>
        <time>2024-05-18T11:10:51.000Z</time>
      </trkpt>
      <trkpt lat="41.260873" lon="-74.099039">
        <ele>317.462262</ele>
        <time>2024-05-18T11:10:57.000Z</time>
      </trkpt>
      <trkpt lat="41.262215" lon="-74.099053">
        <ele>316.215116</ele>
        <time>2024-05-18T11:11:12.000Z</time>
      </trkpt>
      <trkpt lat="41.262912" lon="-74.09885">
        <ele>315.961592</ele>
        <time>2024-05-18T11:11:20.000Z</time>
      </trkpt>
      <trkpt lat="41.26368" lon="-74.098311">
        <ele>315.658915</ele>
        <time>2024-05-18T11:11:30.000Z</time>
      </trkpt>
      <trkpt lat="41.264258" lon="-74.097766">
        <ele>315.377809</ele>
        <time>2024-05-18T11:11:38.000Z</time>
      </trkpt>
      <trkpt lat="41.265277" lon="-74.096978">
        <ele>314.929112</ele>
        <time>2024-05-18T11:11:51.000Z</time>
      </trkpt>
      <trkpt lat="41.265753" lon="-74.096718">
        <ele>314.817376</ele>
        <time>2024-05-18T11:11:57.000Z</time>
      </trkpt>
      <trkpt lat="41.267101" lon="-74.096102">
        <ele>314.568199</ele>
        <time>2024-05-18T11:12:13.000Z</time>
      </trkpt>
      <trkpt lat="41.268149" lon="-74.095348">
        <ele>314.615216</ele>
        <time>2024-05-18T11:12:26.000Z</time>
      </trkpt>
      <trkpt lat="41.268693" lon="-74.094842">
        <ele>314.701839</ele>
        <time>2024-05-18T11:12:33.000Z</time>
      </trkpt>
      <trkpt lat="41.270037" lon="-74.093269">
        <ele>315.170864</ele>
        <time>2024-05-18T11:12:53.000Z</time>
      </trkpt>
      <trkpt lat="41.270922" lon="-74.092334">
        <ele>315.457443</ele>
        <time>2024-05-18T11:13:06.000Z</time>
      </trkpt>
      <trkpt lat="41.27538" lon="-74.088155">
        <ele>317.008029</ele>
        <time>2024-05-18T11:14:07.000Z</time>
      </trkpt>
      <trkpt lat="41.275316" lon="-74.087945">
        <ele>317.105457</ele>
        <time>2024-05-18T11:14:09.000Z</time>
      </trkpt>
      <trkpt lat="41.27538" lon="-74.087735">
        <ele>317.203321</ele>
        <time>2024-05-18T11:14:11.000Z</time>
      </trkpt>
      <trkpt lat="41.275525" lon="-74.08765">
        <ele>317.417173</ele>
        <time>2024-05-18T11:14:13.000Z</time>
      </trkpt>
      <trkpt lat="41.27547" lon="-74.087016">
        <ele>318.120115</ele>
        <time>2024-05-18T11:14:18.000Z</time>
      </trkpt>
      <trkpt lat="41.275397" lon="-74.086845">
        <ele>318.338009</ele>
        <time>2024-05-18T11:14:20.000Z</time>
      </trkpt>
      <trkpt lat="41.275067" lon="-74.086314">
        <ele>319.119559</ele>
        <time>2024-05-18T11:14:26.000Z</time>
      </trkpt>
      <trkpt lat="41.274813" lon="-74.086095">
        <ele>319.577361</ele>
        <time>2024-05-18T11:14:29.000Z</time>
      </trkpt>
      <trkpt lat="41.274308" lon="-74.085895">
        <ele>320.332517</ele>
        <time>2024-05-18T11:14:35.000Z</time>
      </trkpt>
      <trkpt lat="41.274225" lon="-74.085809">
        <ele>320.494352</ele>
        <time>2024-05-18T11:14:36.000Z</time>
      </trkpt>
      <trkpt lat="41.273513" lon="-74.084382">
        <ele>322.332164</ele>
        <time>2024-05-18T11:14:50.000Z</time>
      </trkpt>
      <trkpt lat="41.273186" lon="-74.083445">
        <ele>324.935919</ele>
        <time>2024-05-18T11:14:59.000Z</time>
      </trkpt>
      <trkpt lat="41.272992" lon="-74.083248">
        <ele>325.81753</ele>
        <time>2024-05-18T11:15:02.000Z</time>
      </trkpt>
      <trkpt lat="41.272671" lon="-74.083258">
        <ele>327.002045</ele>
        <time>2024-05-18T11:15:06.000Z</time>
      </trkpt>
      <trkpt lat="41.271899" lon="-74.083591">
        <ele>329.844674</ele>
        <time>2024-05-18T11:15:15.000Z</time>
      </trkpt>
      <trkpt lat="41.271506" lon="-74.083899">
        <ele>331.34396</ele>
        <time>2024-05-18T11:15:20.000Z</time>
      </trkpt>
      <trkpt lat="41.270576" lon="-74.084461">
        <ele>334.624631</ele>
        <time>2024-05-18T11:15:31.000Z</time>
      </trkpt>
      <trkpt lat="41.269604" lon="-74.084816">
        <ele>335.61853</ele>
        <time>2024-05-18T11:15:42.000Z</time>
      </trkpt>
      <trkpt lat="41.268171" lon="-74.084616">
        <ele>336.071108</ele>
        <time>2024-05-18T11:15:58.000Z</time>
      </trkpt>
      <trkpt lat="41.268079" lon="-74.084458">
        <ele>336.010793</ele>
        <time>2024-05-18T11:16:00.000Z</time>
      </trkpt>
      <trkpt lat="41.268044" lon="-74.08441">
        <ele>335.991507</ele>
        <time>2024-05-18T11:16:01.000Z</time>
      </trkpt>
      <trkpt lat="41.267863" lon="-74.084077">
        <ele>335.865666</ele>
        <time>2024-05-18T11:16:04.000Z</time>
      </trkpt>
      <trkpt lat="41.267621" lon="-74.083678">
        <ele>335.705675</ele>
        <time>2024-05-18T11:16:08.000Z</time>
      </trkpt>
      <trkpt lat="41.267349" lon="-74.083477">
        <ele>335.573008</ele>
        <time>2024-05-18T11:16:11.000Z</time>
      </trkpt>
      <trkpt lat="41.267109" lon="-74.083405">
        <ele>335.163188</ele>
        <time>2024-05-18T11:16:14.000Z</time>
      </trkpt>
      <trkpt lat="41.266146" lon="-74.083794">
        <ele>333.358087</ele>
        <time>2024-05-18T11:16:25.000Z</time>
      </trkpt>
      <trkpt lat="41.264872" lon="-74.083911">
        <ele>329.066467</ele>
        <time>2024-05-18T11:16:39.000Z</time>
      </trkpt>
      <trkpt lat="41.264615" lon="-74.083962">
        <ele>327.818865</ele>
        <time>2024-05-18T11:16:42.000Z</time>
      </trkpt>
      <trkpt lat="41.26353" lon="-74.084583">
        <ele>322.244381</ele>
        <time>2024-05-18T11:16:55.000Z</time>
      </trkpt>
      <trkpt lat="41.262149" lon="-74.085029">
        <ele>315.082413</ele>
        <time>2024-05-18T11:17:11.000Z</time>
      </trkpt>
      <trkpt lat="41.261744" lon="-74.085522">
        <ele>313.554134</ele>
        <time>2024-05-18T11:17:17.000Z</time>
      </trkpt>
      <trkpt lat="41.261038" lon="-74.085977">
        <ele>311.450098</ele>
        <time>2024-05-18T11:17:26.000Z</time>
      </trkpt>
      <trkpt lat="41.260771" lon="-74.085965">
        <ele>310.749887</ele>
        <time>2024-05-18T11:17:29.000Z</time>
      </trkpt>
      <trkpt lat="41.260532" lon="-74.085652">
        <ele>309.627655</ele>
        <time>2024-05-18T11:17:33.000Z</time>
      </trkpt>
      <trkpt lat="41.260485" lon="-74.085405">
        <ele>308.714862</ele>
        <time>2024-05-18T11:17:35.000Z</time>
      </trkpt>
      <trkpt lat="41.260508" lon="-74.085049">
        <ele>307.425385</ele>
        <time>2024-05-18T11:17:38.000Z</time>
      </trkpt>
      <trkpt lat="41.26061" lon="-74.084367">
        <ele>304.911722</ele>
        <time>2024-05-18T11:17:44.000Z</time>
      </trkpt>
      <trkpt lat="41.260539" lon="-74.084085">
        <ele>303.802927</ele>
        <time>2024-05-18T11:17:46.000Z</time>
      </trkpt>
      <trkpt lat="41.260411" lon="-74.083811">
        <ele>302.663177</ele>
        <time>2024-05-18T11:17:49.000Z</time>
      </trkpt>
      <trkpt lat="41.260091" lon="-74.08332">
        <ele>299.534296</ele>
        <time>2024-05-18T11:17:54.000Z</time>
      </trkpt>
      <trkpt lat="41.259228" lon="-74.082739">
        <ele>292.055571</ele>
        <time>2024-05-18T11:18:05.000Z</time>
      </trkpt>
      <trkpt lat="41.259096" lon="-74.082572">
        <ele>290.7122</ele>
        <time>2024-05-18T11:18:07.000Z</time>
      </trkpt>
      <trkpt lat="41.259057" lon="-74.08241">
        <ele>289.634878</ele>
        <time>2024-05-18T11:18:08.000Z</time>
      </trkpt>
      <trkpt lat="41.259055" lon="-74.082271">
        <ele>288.837937</ele>
        <time>2024-05-18T11:18:09.000Z</time>
      </trkpt>
      <trkpt lat="41.258968" lon="-74.081889">
        <ele>286.905106</ele>
        <time>2024-05-18T11:18:12.000Z</time>
      </trkpt>
      <trkpt lat="41.258549" lon="-74.081282">
        <ele>284.186687</ele>
        <time>2024-05-18T11:18:19.000Z</time>
      </trkpt>
      <trkpt lat="41.25776" lon="-74.07915">
        <ele>278.691655</ele>
        <time>2024-05-18T11:18:39.000Z</time>
      </trkpt>
      <trkpt lat="41.257885" lon="-74.077579">
        <ele>277.330928</ele>
        <time>2024-05-18T11:18:52.000Z</time>
      </trkpt>
      <trkpt lat="41.257859" lon="-74.077135">
        <ele>277.096036</ele>
        <time>2024-05-18T11:18:56.000Z</time>
      </trkpt>
      <trkpt lat="41.257741" lon="-74.076407">
        <ele>276.697437</ele>
        <time>2024-05-18T11:19:02.000Z</time>
      </trkpt>
      <trkpt lat="41.257379" lon="-74.075693">
        <ele>276.238414</ele>
        <time>2024-05-18T11:19:09.000Z</time>
      </trkpt>
      <trkpt lat="41.257177" lon="-74.075251">
        <ele>275.342937</ele>
        <time>2024-05-18T11:19:13.000Z</time>
      </trkpt>
      <trkpt lat="41.2571" lon="-74.074694">
        <ele>273.955425</ele>
        <time>2024-05-18T11:19:18.000Z</time>
      </trkpt>
      <trkpt lat="41.256843" lon="-74.073659">
        <ele>271.344946</ele>
        <time>2024-05-18T11:19:27.000Z</time>
      </trkpt>
      <trkpt lat="41.25646" lon="-74.072874">
        <ele>268.582494</ele>
        <time>2024-05-18T11:19:35.000Z</time>
      </trkpt>
      <trkpt lat="41.256236" lon="-74.071966">
        <ele>265.374662</ele>
        <time>2024-05-18T11:19:43.000Z</time>
      </trkpt>
      <trkpt lat="41.256275" lon="-74.071178">
        <ele>262.690463</ele>
        <time>2024-05-18T11:19:50.000Z</time>
      </trkpt>
      <trkpt lat="41.256048" lon="-74.070269">
        <ele>257.924719</ele>
        <time>2024-05-18T11:19:58.000Z</time>
      </trkpt>
      <trkpt lat="41.25599" lon="-74.0697">
        <ele>254.908037</ele>
        <time>2024-05-18T11:20:03.000Z</time>
      </trkpt>
      <trkpt lat="41.255861" lon="-74.069358">
        <ele>252.892079</ele>
        <time>2024-05-18T11:20:06.000Z</time>
      </trkpt>
      <trkpt lat="41.255278" lon="-74.068407">
        <ele>245.338064</ele>
        <time>2024-05-18T11:20:16.000Z</time>
      </trkpt>
      <trkpt lat="41.254065" lon="-74.067328">
        <ele>232.642526</ele>
        <time>2024-05-18T11:20:32.000Z</time>
      </trkpt>
      <trkpt lat="41.253163" lon="-74.066648">
        <ele>227.62058</ele>
        <time>2024-05-18T11:20:44.000Z</time>
      </trkpt>
      <trkpt lat="41.252955" lon="-74.066454">
        <ele>226.312811</ele>
        <time>2024-05-18T11:20:47.000Z</time>
      </trkpt>
      <trkpt lat="41.252846" lon="-74.066347">
        <ele>225.674884</ele>
        <time>2024-05-18T11:20:49.000Z</time>
      </trkpt>
      <trkpt lat="41.252278" lon="-74.065958">
        <ele>223.726882</ele>
        <time>2024-05-18T11:20:56.000Z</time>
      </trkpt>
      <trkpt lat="41.252091" lon="-74.065738">
        <ele>223.205014</ele>
        <time>2024-05-18T11:20:59.000Z</time>
      </trkpt>
      <trkpt lat="41.251742" lon="-74.065045">
        <ele>221.933303</ele>
        <time>2024-05-18T11:21:06.000Z</time>
      </trkpt>
      <trkpt lat="41.251626" lon="-74.064577">
        <ele>221.155911</ele>
        <time>2024-05-18T11:21:10.000Z</time>
      </trkpt>
      <trkpt lat="41.251594" lon="-74.064309">
        <ele>220.633214</ele>
        <time>2024-05-18T11:21:12.000Z</time>
      </trkpt>
      <trkpt lat="41.251577" lon="-74.064068">
        <ele>219.969178</ele>
        <time>2024-05-18T11:21:14.000Z</time>
      </trkpt>
      <trkpt lat="41.251572" lon="-74.063744">
        <ele>219.093885</ele>
        <time>2024-05-18T11:21:17.000Z</time>
      </trkpt>
      <trkpt lat="41.251467" lon="-74.063231">
        <ele>217.627935</ele>
        <time>2024-05-18T11:21:21.000Z</time>
      </trkpt>
      <trkpt lat="41.251205" lon="-74.062582">
        <ele>215.624483</ele>
        <time>2024-05-18T11:21:27.000Z</time>
      </trkpt>
      <trkpt lat="41.251085" lon="-74.062093">
        <ele>214.217488</ele>
        <time>2024-05-18T11:21:31.000Z</time>
      </trkpt>
      <trkpt lat="41.250937" lon="-74.061162">
        <ele>211.595424</ele>
        <time>2024-05-18T11:21:39.000Z</time>
      </trkpt>
      <trkpt lat="41.250672" lon="-74.06007">
        <ele>208.394037</ele>
        <time>2024-05-18T11:21:49.000Z</time>
      </trkpt>
      <trkpt lat="41.250698" lon="-74.059819">
        <ele>207.660462</ele>
        <time>2024-05-18T11:21:51.000Z</time>
      </trkpt>
      <trkpt lat="41.250914" lon="-74.059501">
        <ele>205.902554</ele>
        <time>2024-05-18T11:21:55.000Z</time>
      </trkpt>
      <trkpt lat="41.251161" lon="-74.058735">
        <ele>202.658387</ele>
        <time>2024-05-18T11:22:02.000Z</time>
      </trkpt>
      <trkpt lat="41.252307" lon="-74.057031">
        <ele>193.432925</ele>
        <time>2024-05-18T11:22:21.000Z</time>
      </trkpt>
      <trkpt lat="41.252465" lon="-74.056582">
        <ele>191.506505</ele>
        <time>2024-05-18T11:22:25.000Z</time>
      </trkpt>
      <trkpt lat="41.252548" lon="-74.055824">
        <ele>188.40789</ele>
        <time>2024-05-18T11:22:31.000Z</time>
      </trkpt>
      <trkpt lat="41.252463" lon="-74.055452">
        <ele>187.225912</ele>
        <time>2024-05-18T11:22:34.000Z</time>
      </trkpt>
      <trkpt lat="41.252159" lon="-74.054772">
        <ele>184.772823</ele>
        <time>2024-05-18T11:22:41.000Z</time>
      </trkpt>
      <trkpt lat="41.251992" lon="-74.054206">
        <ele>182.918515</ele>
        <time>2024-05-18T11:22:46.000Z</time>
      </trkpt>
      <trkpt lat="41.251924" lon="-74.053396">
        <ele>180.199336</ele>
        <time>2024-05-18T11:22:53.000Z</time>
      </trkpt>
      <trkpt lat="41.251917" lon="-74.052292">
        <ele>175.841443</ele>
        <time>2024-05-18T11:23:02.000Z</time>
      </trkpt>
      <trkpt lat="41.251813" lon="-74.051606">
        <ele>173.02376</ele>
        <time>2024-05-18T11:23:08.000Z</time>
      </trkpt>
      <trkpt lat="41.2517" lon="-74.051294">
        <ele>171.664856</ele>
        <time>2024-05-18T11:23:11.000Z</time>
      </trkpt>
      <trkpt lat="41.251195" lon="-74.050283">
        <ele>166.104422</ele>
        <time>2024-05-18T11:23:21.000Z</time>
      </trkpt>
      <trkpt lat="41.250948" lon="-74.049723">
        <ele>163.185283</ele>
        <time>2024-05-18T11:23:26.000Z</time>
      </trkpt>
      <trkpt lat="41.250785" lon="-74.049105">
        <ele>160.443054</ele>
        <time>2024-05-18T11:23:31.000Z</time>
      </trkpt>
      <trkpt lat="41.250613" lon="-74.048274">
        <ele>157.62312</ele>
        <time>2024-05-18T11:23:38.000Z</time>
      </trkpt>
      <trkpt lat="41.250158" lon="-74.046239">
        <ele>152.417623</ele>
        <time>2024-05-18T11:23:56.000Z</time>
      </trkpt>
      <trkpt lat="41.250055" lon="-74.045761">
        <ele>152.002992</ele>
        <time>2024-05-18T11:24:00.000Z</time>
      </trkpt>
      <trkpt lat="41.25003" lon="-74.045233">
        <ele>151.57154</ele>
        <time>2024-05-18T11:24:04.000Z</time>
      </trkpt>
      <trkpt lat="41.250152" lon="-74.045142">
        <ele>151.428283</ele>
        <time>2024-05-18T11:24:06.000Z</time>
      </trkpt>
      <trkpt lat="41.250271" lon="-74.045219">
        <ele>151.285533</ele>
        <time>2024-05-18T11:24:07.000Z</time>
      </trkpt>
      <trkpt lat="41.250586" lon="-74.046258">
        <ele>153.320017</ele>
        <time>2024-05-18T11:24:16.000Z</time>
      </trkpt>
      <trkpt lat="41.250734" lon="-74.047191">
        <ele>155.966894</ele>
        <time>2024-05-18T11:24:24.000Z</time>
      </trkpt>
      <trkpt lat="41.250738" lon="-74.048258">
        <ele>160.898619</ele>
        <time>2024-05-18T11:24:33.000Z</time>
      </trkpt>
      <trkpt lat="41.250667" lon="-74.049031">
        <ele>166.220752</ele>
        <time>2024-05-18T11:24:40.000Z</time>
      </trkpt>
      <trkpt lat="41.250552" lon="-74.049665">
        <ele>170.812228</ele>
        <time>2024-05-18T11:24:45.000Z</time>
      </trkpt>
      <trkpt lat="41.250351" lon="-74.05033">
        <ele>175.99771</ele>
        <time>2024-05-18T11:24:51.000Z</time>
      </trkpt>
      <trkpt lat="41.250049" lon="-74.051062">
        <ele>182.757878</ele>
        <time>2024-05-18T11:24:58.000Z</time>
      </trkpt>
      <trkpt lat="41.24963" lon="-74.051791">
        <ele>190.009314</ele>
        <time>2024-05-18T11:25:06.000Z</time>
      </trkpt>
      <trkpt lat="41.24917" lon="-74.052385">
        <ele>196.315334</ele>
        <time>2024-05-18T11:25:13.000Z</time>
      </trkpt>
      <trkpt lat="41.248696" lon="-74.052855">
        <ele>201.724249</ele>
        <time>2024-05-18T11:25:20.000Z</time>
      </trkpt>
      <trkpt lat="41.24807" lon="-74.053262">
        <ele>207.890716</ele>
        <time>2024-05-18T11:25:28.000Z</time>
      </trkpt>
      <trkpt lat="41.247402" lon="-74.05357">
        <ele>215.262557</ele>
        <time>2024-05-18T11:25:36.000Z</time>
      </trkpt>
      <trkpt lat="41.246921" lon="-74.053665">
        <ele>220.631001</ele>
        <time>2024-05-18T11:25:41.000Z</time>
      </trkpt>
      <trkpt lat="41.24499" lon="-74.053839">
        <ele>240.884052</ele>
        <time>2024-05-18T11:26:03.000Z</time>
      </trkpt>
      <trkpt lat="41.244668" lon="-74.053905">
        <ele>244.108854</ele>
        <time>2024-05-18T11:26:07.000Z</time>
      </trkpt>
      <trkpt lat="41.243998" lon="-74.054151">
        <ele>249.643287</ele>
        <time>2024-05-18T11:26:15.000Z</time>
      </trkpt>
      <trkpt lat="41.242941" lon="-74.054842">
        <ele>256.755277</ele>
        <time>2024-05-18T11:26:28.000Z</time>
      </trkpt>
      <trkpt lat="41.241806" lon="-74.055892">
        <ele>263.321021</ele>
        <time>2024-05-18T11:26:43.000Z</time>
      </trkpt>
      <trkpt lat="41.241072" lon="-74.056867">
        <ele>268.390073</ele>
        <time>2024-05-18T11:26:55.000Z</time>
      </trkpt>
      <trkpt lat="41.240581" lon="-74.057696">
        <ele>272.900748</ele>
        <time>2024-05-18T11:27:04.000Z</time>
      </trkpt>
      <trkpt lat="41.24021" lon="-74.058482">
        <ele>276.956761</ele>
        <time>2024-05-18T11:27:12.000Z</time>
      </trkpt>
      <trkpt lat="41.239905" lon="-74.059219">
        <ele>281.005595</ele>
        <time>2024-05-18T11:27:19.000Z</time>
      </trkpt>
      <trkpt lat="41.239858" lon="-74.059343">
        <ele>281.658314</ele>
        <time>2024-05-18T11:27:20.000Z</time>
      </trkpt>
      <trkpt lat="41.239647" lon="-74.060141">
        <ele>285.767106</ele>
        <time>2024-05-18T11:27:27.000Z</time>
      </trkpt>
      <trkpt lat="41.239363" lon="-74.061229">
        <ele>290.729917</ele>
        <time>2024-05-18T11:27:37.000Z</time>
      </trkpt>
      <trkpt lat="41.239254" lon="-74.062069">
        <ele>294.126653</ele>
        <time>2024-05-18T11:27:44.000Z</time>
      </trkpt>
      <trkpt lat="41.239241" lon="-74.063012">
        <ele>297.952872</ele>
        <time>2024-05-18T11:27:52.000Z</time>
      </trkpt>
      <trkpt lat="41.239327" lon="-74.06401">
        <ele>302.234703</ele>
        <time>2024-05-18T11:28:00.000Z</time>
      </trkpt>
      <trkpt lat="41.239479" lon="-74.064846">
        <ele>305.951425</ele>
        <time>2024-05-18T11:28:07.000Z</time>
      </trkpt>
      <trkpt lat="41.239967" lon="-74.066604">
        <ele>311.679792</ele>
        <time>2024-05-18T11:28:23.000Z</time>
      </trkpt>
      <trkpt lat="41.240071" lon="-74.067179">
        <ele>313.254876</ele>
        <time>2024-05-18T11:28:28.000Z</time>
      </trkpt>
      <trkpt lat="41.240112" lon="-74.068058">
        <ele>314.568907</ele>
        <time>2024-05-18T11:28:35.000Z</time>
      </trkpt>
      <trkpt lat="41.239994" lon="-74.068905">
        <ele>315.044069</ele>
        <time>2024-05-18T11:28:42.000Z</time>
      </trkpt>
      <trkpt lat="41.239807" lon="-74.069441">
        <ele>315.368064</ele>
        <time>2024-05-18T11:28:47.000Z</time>
      </trkpt>
      <trkpt lat="41.23982" lon="-74.069448">
        <ele>315.370395</ele>
        <time>2024-05-18T11:28:47.000Z</time>
      </trkpt>
      <trkpt lat="41.238999" lon="-74.071116">
        <ele>317.160778</ele>
        <time>2024-05-18T11:29:04.000Z</time>
      </trkpt>
      <trkpt lat="41.238853" lon="-74.071419">
        <ele>317.522167</ele>
        <time>2024-05-18T11:29:07.000Z</time>
      </trkpt>
      <trkpt lat="41.238498" lon="-74.072567">
        <ele>320.112473</ele>
        <time>2024-05-18T11:29:17.000Z</time>
      </trkpt>
      <trkpt lat="41.238403" lon="-74.072973">
        <ele>321.290652</ele>
        <time>2024-05-18T11:29:21.000Z</time>
      </trkpt>
      <trkpt lat="41.238327" lon="-74.073785">
        <ele>323.627923</ele>
        <time>2024-05-18T11:29:28.000Z</time>
      </trkpt>
      <trkpt lat="41.238337" lon="-74.075331">
        <ele>328.981023</ele>
        <time>2024-05-18T11:29:41.000Z</time>
      </trkpt>
      <trkpt lat="41.238336" lon="-74.075605">
        <ele>330.021174</ele>
        <time>2024-05-18T11:29:43.000Z</time>
      </trkpt>
      <trkpt lat="41.238297" lon="-74.076528">
        <ele>333.444823</ele>
        <time>2024-05-18T11:29:51.000Z</time>
      </trkpt>
      <trkpt lat="41.238099" lon="-74.077684">
        <ele>337.165854</ele>
        <time>2024-05-18T11:30:01.000Z</time>
      </trkpt>
      <trkpt lat="41.237874" lon="-74.07839">
        <ele>339.54182</ele>
        <time>2024-05-18T11:30:07.000Z</time>
      </trkpt>
      <trkpt lat="41.237853" lon="-74.078448">
        <ele>339.762289</ele>
        <time>2024-05-18T11:30:08.000Z</time>
      </trkpt>
      <trkpt lat="41.237492" lon="-74.079251">
        <ele>342.125538</ele>
        <time>2024-05-18T11:30:16.000Z</time>
      </trkpt>
      <trkpt lat="41.237035" lon="-74.079966">
        <ele>344.060218</ele>
        <time>2024-05-18T11:30:24.000Z</time>
      </trkpt>
      <trkpt lat="41.235469" lon="-74.0817">
        <ele>347.990634</ele>
        <time>2024-05-18T11:30:47.000Z</time>
      </trkpt>
      <trkpt lat="41.234981" lon="-74.082441">
        <ele>348.611286</ele>
        <time>2024-05-18T11:30:55.000Z</time>
      </trkpt>
      <trkpt lat="41.234534" lon="-74.083387">
        <ele>348.383957</ele>
        <time>2024-05-18T11:31:04.000Z</time>
      </trkpt>
      <trkpt lat="41.233782" lon="-74.085756">
        <ele>345.629325</ele>
        <time>2024-05-18T11:31:26.000Z</time>
      </trkpt>
      <trkpt lat="41.233329" lon="-74.086747">
        <ele>342.93925</ele>
        <time>2024-05-18T11:31:36.000Z</time>
      </trkpt>
      <trkpt lat="41.232808" lon="-74.087647">
        <ele>338.582664</ele>
        <time>2024-05-18T11:31:46.000Z</time>
      </trkpt>
      <trkpt lat="41.231938" lon="-74.088661">
        <ele>333.355116</ele>
        <time>2024-05-18T11:31:59.000Z</time>
      </trkpt>
      <trkpt lat="41.231011" lon="-74.089419">
        <ele>329.002493</ele>
        <time>2024-05-18T11:32:11.000Z</time>
      </trkpt>
      <trkpt lat="41.230261" lon="-74.089841">
        <ele>327.728463</ele>
        <time>2024-05-18T11:32:20.000Z</time>
      </trkpt>
      <trkpt lat="41.228607" lon="-74.09051">
        <ele>326.688318</ele>
        <time>2024-05-18T11:32:39.000Z</time>
      </trkpt>
      <trkpt lat="41.227873" lon="-74.090918">
        <ele>326.706863</ele>
        <time>2024-05-18T11:32:48.000Z</time>
      </trkpt>
      <trkpt lat="41.226859" lon="-74.09168">
        <ele>326.481627</ele>
        <time>2024-05-18T11:33:01.000Z</time>
      </trkpt>
      <trkpt lat="41.226522" lon="-74.091991">
        <ele>326.352137</ele>
        <time>2024-05-18T11:33:06.000Z</time>
      </trkpt>
      <trkpt lat="41.225764" lon="-74.092868">
        <ele>325.66413</ele>
        <time>2024-05-18T11:33:17.000Z</time>
      </trkpt>
      <trkpt lat="41.225221" lon="-74.093704">
        <ele>324.502557</ele>
        <time>2024-05-18T11:33:26.000Z</time>
      </trkpt>
      <trkpt lat="41.223967" lon="-74.0958">
        <ele>322.129</ele>
        <time>2024-05-18T11:33:48.000Z</time>
      </trkpt>
      <trkpt lat="41.223224" lon="-74.096689">
        <ele>322.266337</ele>
        <time>2024-05-18T11:33:59.000Z</time>
      </trkpt>
      <trkpt lat="41.222663" lon="-74.097229">
        <ele>322.951424</ele>
        <time>2024-05-18T11:34:07.000Z</time>
      </trkpt>
      <trkpt lat="41.221048" lon="-74.098828">
        <ele>326.506651</ele>
        <time>2024-05-18T11:34:29.000Z</time>
      </trkpt>
      <trkpt lat="41.220695" lon="-74.099281">
        <ele>327.447371</ele>
        <time>2024-05-18T11:34:34.000Z</time>
      </trkpt>
      <trkpt lat="41.220034" lon="-74.100351">
        <ele>329.178436</ele>
        <time>2024-05-18T11:34:46.000Z</time>
      </trkpt>
      <trkpt lat="41.219717" lon="-74.100959">
        <ele>330.135404</ele>
        <time>2024-05-18T11:34:52.000Z</time>
      </trkpt>
      <trkpt lat="41.219061" lon="-74.102456">
        <ele>329.521782</ele>
        <time>2024-05-18T11:35:06.000Z</time>
      </trkpt>
      <trkpt lat="41.218592" lon="-74.103882">
        <ele>327.828479</ele>
        <time>2024-05-18T11:35:19.000Z</time>
      </trkpt>
      <trkpt lat="41.218035" lon="-74.105942">
        <ele>324.095114</ele>
        <time>2024-05-18T11:35:37.000Z</time>
      </trkpt>
      <trkpt lat="41.217762" lon="-74.107564">
        <ele>320.93765</ele>
        <time>2024-05-18T11:35:51.000Z</time>
      </trkpt>
      <trkpt lat="41.21727" lon="-74.111571">
        <ele>311.859757</ele>
        <time>2024-05-18T11:36:25.000Z</time>
      </trkpt>
      <trkpt lat="41.216885" lon="-74.113583">
        <ele>309.729719</ele>
        <time>2024-05-18T11:36:42.000Z</time>
      </trkpt>
      <trkpt lat="41.21662" lon="-74.114669">
        <ele>309.050271</ele>
        <time>2024-05-18T11:36:52.000Z</time>
      </trkpt>
      <trkpt lat="41.216162" lon="-74.11603">
        <ele>305.943975</ele>
        <time>2024-05-18T11:37:04.000Z</time>
      </trkpt>
      <trkpt lat="41.216149" lon="-74.116059">
        <ele>305.854566</ele>
        <time>2024-05-18T11:37:04.000Z</time>
      </trkpt>
      <trkpt lat="41.21602" lon="-74.116489">
        <ele>304.885871</ele>
        <time>2024-05-18T11:37:08.000Z</time>
      </trkpt>
      <trkpt lat="41.215525" lon="-74.117658">
        <ele>298.892631</ele>
        <time>2024-05-18T11:37:19.000Z</time>
      </trkpt>
      <trkpt lat="41.213867" lon="-74.121135">
        <ele>275.270071</ele>
        <time>2024-05-18T11:37:54.000Z</time>
      </trkpt>
      <trkpt lat="41.213414" lon="-74.122421">
        <ele>270.144702</ele>
        <time>2024-05-18T11:38:06.000Z</time>
      </trkpt>
      <trkpt lat="41.214445" lon="-74.123327">
        <ele>267.518038</ele>
        <time>2024-05-18T11:38:20.000Z</time>
      </trkpt>
      <trkpt lat="41.215187" lon="-74.123652">
        <ele>267.242801</ele>
        <time>2024-05-18T11:38:29.000Z</time>
      </trkpt>
      <trkpt lat="41.216165" lon="-74.123731">
        <ele>269.409974</ele>
        <time>2024-05-18T11:38:40.000Z</time>
      </trkpt>
      <trkpt lat="41.217254" lon="-74.123368">
        <ele>273.137911</ele>
        <time>2024-05-18T11:38:52.000Z</time>
      </trkpt>
      <trkpt lat="41.218139" lon="-74.122912">
        <ele>277.530247</ele>
        <time>2024-05-18T11:39:03.000Z</time>
      </trkpt>
      <trkpt lat="41.218803" lon="-74.12236">
        <ele>281.207752</ele>
        <time>2024-05-18T11:39:12.000Z</time>
      </trkpt>
      <trkpt lat="41.220299" lon="-74.120622">
        <ele>284.399285</ele>
        <time>2024-05-18T11:39:34.000Z</time>
      </trkpt>
      <trkpt lat="41.22152" lon="-74.119234">
        <ele>283.320237</ele>
        <time>2024-05-18T11:39:52.000Z</time>
      </trkpt>
      <trkpt lat="41.222547" lon="-74.118143">
        <ele>282.884545</ele>
        <time>2024-05-18T11:40:07.000Z</time>
      </trkpt>
      <trkpt lat="41.223946" lon="-74.116859">
        <ele>282.584131</ele>
        <time>2024-05-18T11:40:26.000Z</time>
      </trkpt>
      <trkpt lat="41.224944" lon="-74.116105">
        <ele>282.227576</ele>
        <time>2024-05-18T11:40:39.000Z</time>
      </trkpt>
      <trkpt lat="41.226444" lon="-74.115225">
        <ele>280.903227</ele>
        <time>2024-05-18T11:40:57.000Z</time>
      </trkpt>
      <trkpt lat="41.227717" lon="-74.11466">
        <ele>278.632352</ele>
        <time>2024-05-18T11:41:12.000Z</time>
      </trkpt>
      <trkpt lat="41.228427" lon="-74.114483">
        <ele>277.112421</ele>
        <time>2024-05-18T11:41:20.000Z</time>
      </trkpt>
      <trkpt lat="41.230028" lon="-74.114225">
        <ele>273.33666</ele>
        <time>2024-05-18T11:41:38.000Z</time>
      </trkpt>
      <trkpt lat="41.231235" lon="-74.113941">
        <ele>269.992772</ele>
        <time>2024-05-18T11:41:52.000Z</time>
      </trkpt>
      <trkpt lat="41.232205" lon="-74.113428">
        <ele>266.427078</ele>
        <time>2024-05-18T11:42:04.000Z</time>
      </trkpt>
      <trkpt lat="41.233023" lon="-74.112743">
        <ele>263.240865</ele>
        <time>2024-05-18T11:42:15.000Z</time>
      </trkpt>
      <trkpt lat="41.233739" lon="-74.111868">
        <ele>261.995889</ele>
        <time>2024-05-18T11:42:26.000Z</time>
      </trkpt>
      <trkpt lat="41.233806" lon="-74.111719">
        <ele>261.835357</ele>
        <time>2024-05-18T11:42:27.000Z</time>
      </trkpt>
      <trkpt lat="41.233828" lon="-74.111461">
        <ele>261.579361</ele>
        <time>2024-05-18T11:42:29.000Z</time>
      </trkpt>
      <trkpt lat="41.233818" lon="-74.111195">
        <ele>261.318435</ele>
        <time>2024-05-18T11:42:31.000Z</time>
      </trkpt>
      <trkpt lat="41.233915" lon="-74.110972">
        <ele>261.075794</ele>
        <time>2024-05-18T11:42:33.000Z</time>
      </trkpt>
      <trkpt lat="41.234027" lon="-74.110859">
        <ele>261.493999</ele>
        <time>2024-05-18T11:42:35.000Z</time>
      </trkpt>
      <trkpt lat="41.234174" lon="-74.110844">
        <ele>261.994932</ele>
        <time>2024-05-18T11:42:37.000Z</time>
      </trkpt>
      <trkpt lat="41.234216" lon="-74.110858">
        <ele>262.151937</ele>
        <time>2024-05-18T11:42:37.000Z</time>
      </trkpt>
      <trkpt lat="41.234502" lon="-74.110695">
        <ele>263.240616</ele>
        <time>2024-05-18T11:42:40.000Z</time>
      </trkpt>
      <trkpt lat="41.235769" lon="-74.108629">
        <ele>271.591049</ele>
        <time>2024-05-18T11:43:02.000Z</time>
      </trkpt>
      <trkpt lat="41.236368" lon="-74.107546">
        <ele>276.52082</ele>
        <time>2024-05-18T11:43:13.000Z</time>
      </trkpt>
      <trkpt lat="41.236965" lon="-74.10639">
        <ele>279.975299</ele>
        <time>2024-05-18T11:43:25.000Z</time>
      </trkpt>
      <trkpt lat="41.239284" lon="-74.103293">
        <ele>284.866341</ele>
        <time>2024-05-18T11:44:02.000Z</time>
      </trkpt>
      <trkpt lat="41.239427" lon="-74.103117">
        <ele>284.811955</ele>
        <time>2024-05-18T11:44:04.000Z</time>
      </trkpt>
      <trkpt lat="41.239938" lon="-74.102731">
        <ele>284.656934</ele>
        <time>2024-05-18T11:44:11.000Z</time>
      </trkpt>
      <trkpt lat="41.240798" lon="-74.10218">
        <ele>282.656947</ele>
        <time>2024-05-18T11:44:22.000Z</time>
      </trkpt>
      <trkpt lat="41.240892" lon="-74.102134">
        <ele>282.383851</ele>
        <time>2024-05-18T11:44:23.000Z</time>
      </trkpt>
      <trkpt lat="41.241049" lon="-74.102071">
        <ele>281.983321</ele>
        <time>2024-05-18T11:44:25.000Z</time>
      </trkpt>
      <trkpt lat="41.241073" lon="-74.102068">
        <ele>281.899643</ele>
        <time>2024-05-18T11:44:25.000Z</time>
      </trkpt>
      <trkpt lat="41.241544" lon="-74.101908">
        <ele>280.588047</ele>
        <time>2024-05-18T11:44:30.000Z</time>
      </trkpt>
      <trkpt lat="41.242834" lon="-74.101653">
        <ele>278.391967</ele>
        <time>2024-05-18T11:44:45.000Z</time>
      </trkpt>
      <trkpt lat="41.243167" lon="-74.101521">
        <ele>277.903574</ele>
        <time>2024-05-18T11:44:49.000Z</time>
      </trkpt>
      <trkpt lat="41.24424" lon="-74.10118">
        <ele>277.546522</ele>
        <time>2024-05-18T11:45:01.000Z</time>
      </trkpt>
      <trkpt lat="41.244625" lon="-74.10116">
        <ele>277.693712</ele>
        <time>2024-05-18T11:45:05.000Z</time>
      </trkpt>
      <trkpt lat="41.245026" lon="-74.101194">
        <ele>277.85336</ele>
        <time>2024-05-18T11:45:09.000Z</time>
      </trkpt>
      <trkpt lat="41.246725" lon="-74.10144">
        <ele>279.306663</ele>
        <time>2024-05-18T11:45:28.000Z</time>
      </trkpt>
      <trkpt lat="41.249171" lon="-74.101529">
        <ele>283.119616</ele>
        <time>2024-05-18T11:45:55.000Z</time>
      </trkpt>
      <trkpt lat="41.2505" lon="-74.101556">
        <ele>286.477806</ele>
        <time>2024-05-18T11:46:10.000Z</time>
      </trkpt>
      <trkpt lat="41.251619" lon="-74.101659">
        <ele>290.225688</ele>
        <time>2024-05-18T11:46:22.000Z</time>
      </trkpt>
      <trkpt lat="41.253537" lon="-74.102142">
        <ele>298.422275</ele>
        <time>2024-05-18T11:46:44.000Z</time>
      </trkpt>
      <trkpt lat="41.253891" lon="-74.102079">
        <ele>300.078592</ele>
        <time>2024-05-18T11:46:48.000Z</time>
      </trkpt>
      <trkpt lat="41.2545" lon="-74.101834">
        <ele>303.618334</ele>
        <time>2024-05-18T11:46:55.000Z</time>
      </trkpt>
      <trkpt lat="41.256948" lon="-74.100696">
        <ele>319.298522</ele>
        <time>2024-05-18T11:47:24.000Z</time>
      </trkpt>
      <trkpt lat="41.257872" lon="-74.100433">
        <ele>322.644128</ele>
        <time>2024-05-18T11:47:35.000Z</time>
      </trkpt>
      <trkpt lat="41.259341" lon="-74.099708">
        <ele>320.022657</ele>
        <time>2024-05-18T11:47:52.000Z</time>
      </trkpt>
      <trkpt lat="41.260329" lon="-74.099221">
        <ele>318.287032</ele>
        <time>2024-05-18T11:48:04.000Z</time>
      </trkpt>
      <trkpt lat="41.260871" lon="-74.099041">
        <ele>317.361104</ele>
        <time>2024-05-18T11:48:10.000Z</time>
      </trkpt>
      <trkpt lat="41.26221" lon="-74.099038">
        <ele>316.309375</ele>
        <time>2024-05-18T11:48:25.000Z</time>
      </trkpt>
      <trkpt lat="41.262924" lon="-74.098856">
        <ele>315.916095</ele>
        <time>2024-05-18T11:48:33.000Z</time>
      </trkpt>
      <trkpt lat="41.26368" lon="-74.098312">
        <ele>315.622362</ele>
        <time>2024-05-18T11:48:43.000Z</time>
      </trkpt>
      <trkpt lat="41.264252" lon="-74.097764">
        <ele>315.378448</ele>
        <time>2024-05-18T11:48:51.000Z</time>
      </trkpt>
      <trkpt lat="41.265271" lon="-74.096984">
        <ele>314.973678</ele>
        <time>2024-05-18T11:49:04.000Z</time>
      </trkpt>
      <trkpt lat="41.265747" lon="-74.096711">
        <ele>314.791389</ele>
        <time>2024-05-18T11:49:10.000Z</time>
      </trkpt>
      <trkpt lat="41.267117" lon="-74.096117">
        <ele>314.603468</ele>
        <time>2024-05-18T11:49:26.000Z</time>
      </trkpt>
      <trkpt lat="41.268154" lon="-74.095363">
        <ele>314.628702</ele>
        <time>2024-05-18T11:49:39.000Z</time>
      </trkpt>
      <trkpt lat="41.26869" lon="-74.09484">
        <ele>314.727603</ele>
        <time>2024-05-18T11:49:46.000Z</time>
      </trkpt>
      <trkpt lat="41.27004" lon="-74.093265">
        <ele>315.169171</ele>
        <time>2024-05-18T11:50:06.000Z</time>
      </trkpt>
      <trkpt lat="41.270919" lon="-74.092337">
        <ele>315.453774</ele>
        <time>2024-05-18T11:50:18.000Z</time>
      </trkpt>
      <trkpt lat="41.275367" lon="-74.088148">
        <ele>317.05298</ele>
        <time>2024-05-18T11:51:19.000Z</time>
      </trkpt>
      <trkpt lat="41.275308" lon="-74.087952">
        <ele>317.266544</ele>
        <time>2024-05-18T11:51:21.000Z</time>
      </trkpt>
      <trkpt lat="41.275378" lon="-74.087738">
        <ele>317.481106</ele>
        <time>2024-05-18T11:51:23.000Z</time>
      </trkpt>
      <trkpt lat="41.275511" lon="-74.087648">
        <ele>317.683227</ele>
        <time>2024-05-18T11:51:25.000Z</time>
      </trkpt>
      <trkpt lat="41.275459" lon="-74.087028">
        <ele>318.289096</ele>
        <time>2024-05-18T11:51:30.000Z</time>
      </trkpt>
      <trkpt lat="41.275409" lon="-74.086847">
        <ele>318.47691</ele>
        <time>2024-05-18T11:51:32.000Z</time>
      </trkpt>
      <trkpt lat="41.275066" lon="-74.086324">
        <ele>319.135789</ele>
        <time>2024-05-18T11:51:38.000Z</time>
      </trkpt>
      <trkpt lat="41.274797" lon="-74.086095">
        <ele>319.517373</ele>
        <time>2024-05-18T11:51:42.000Z</time>
      </trkpt>
      <trkpt lat="41.274309" lon="-74.085894">
        <ele>320.160902</ele>
        <time>2024-05-18T11:51:48.000Z</time>
      </trkpt>
      <trkpt lat="41.27422" lon="-74.085804">
        <ele>320.30108</ele>
        <time>2024-05-18T11:51:49.000Z</time>
      </trkpt>
      <trkpt lat="41.273514" lon="-74.084381">
        <ele>322.857907</ele>
        <time>2024-05-18T11:52:03.000Z</time>
      </trkpt>
      <trkpt lat="41.273181" lon="-74.083449">
        <ele>324.80034</ele>
        <time>2024-05-18T11:52:12.000Z</time>
      </trkpt>
      <trkpt lat="41.272993" lon="-74.083251">
        <ele>325.403866</ele>
        <time>2024-05-18T11:52:15.000Z</time>
      </trkpt>
      <trkpt lat="41.272676" lon="-74.083257">
        <ele>326.668521</ele>
        <time>2024-05-18T11:52:19.000Z</time>
      </trkpt>
      <trkpt lat="41.271909" lon="-74.083583">
        <ele>329.865958</ele>
        <time>2024-05-18T11:52:28.000Z</time>
      </trkpt>
      <trkpt lat="41.271502" lon="-74.083905">
        <ele>331.705606</ele>
        <time>2024-05-18T11:52:33.000Z</time>
      </trkpt>
      <trkpt lat="41.270579" lon="-74.084462">
        <ele>334.140664</ele>
        <time>2024-05-18T11:52:44.000Z</time>
      </trkpt>
      <trkpt lat="41.269612" lon="-74.084828">
        <ele>336.115625</ele>
        <time>2024-05-18T11:52:55.000Z</time>
      </trkpt>
      <trkpt lat="41.268163" lon="-74.084615">
        <ele>336.046241</ele>
        <time>2024-05-18T11:53:11.000Z</time>
      </trkpt>
      <trkpt lat="41.268087" lon="-74.084453">
        <ele>336.039204</ele>
        <time>2024-05-18T11:53:13.000Z</time>
      </trkpt>
      <trkpt lat="41.268051" lon="-74.08441">
        <ele>336.036956</ele>
        <time>2024-05-18T11:53:14.000Z</time>
      </trkpt>
      <trkpt lat="41.267862" lon="-74.08409">
        <ele>335.897797</ele>
        <time>2024-05-18T11:53:17.000Z</time>
      </trkpt>
      <trkpt lat="41.267618" lon="-74.083686">
        <ele>335.556328</ele>
        <time>2024-05-18T11:53:21.000Z</time>
      </trkpt>
      <trkpt lat="41.267345" lon="-74.083478">
        <ele>335.273187</ele>
        <time>2024-05-18T11:53:24.000Z</time>
      </trkpt>
      <trkpt lat="41.267106" lon="-74.083409">
        <ele>335.064457</ele>
        <time>2024-05-18T11:53:27.000Z</time>
      </trkpt>
      <trkpt lat="41.266131" lon="-74.083789">
        <ele>333.450422</ele>
        <time>2024-05-18T11:53:38.000Z</time>
      </trkpt>
      <trkpt lat="41.264869" lon="-74.083913">
        <ele>329.378332</ele>
        <time>2024-05-18T11:53:52.000Z</time>
      </trkpt>
      <trkpt lat="41.264609" lon="-74.08396">
        <ele>328.409292</ele>
        <time>2024-05-18T11:53:55.000Z</time>
      </trkpt>
      <trkpt lat="41.263535" lon="-74.084585">
        <ele>322.027129</ele>
        <time>2024-05-18T11:54:08.000Z</time>
      </trkpt>
      <trkpt lat="41.262142" lon="-74.085032">
        <ele>315.717762</ele>
        <time>2024-05-18T11:54:24.000Z</time>
      </trkpt>
      <trkpt lat="41.261743" lon="-74.085518">
        <ele>313.672712</ele>
        <time>2024-05-18T11:54:30.000Z</time>
      </trkpt>
      <trkpt lat="41.261037" lon="-74.085986">
        <ele>311.043662</ele>
        <time>2024-05-18T11:54:39.000Z</time>
      </trkpt>
      <trkpt lat="41.260766" lon="-74.085962">
        <ele>310.265566</ele>
        <time>2024-05-18T11:54:42.000Z</time>
      </trkpt>
      <trkpt lat="41.260546" lon="-74.085645">
        <ele>309.278984</ele>
        <time>2024-05-18T11:54:46.000Z</time>
      </trkpt>
      <trkpt lat="41.260486" lon="-74.085409">
        <ele>308.71587</ele>
        <time>2024-05-18T11:54:48.000Z</time>
      </trkpt>
      <trkpt lat="41.260517" lon="-74.085045">
        <ele>307.92036</ele>
        <time>2024-05-18T11:54:51.000Z</time>
      </trkpt>
      <trkpt lat="41.26061" lon="-74.084363">
        <ele>305.71167</ele>
        <time>2024-05-18T11:54:57.000Z</time>
      </trkpt>
      <trkpt lat="41.260538" lon="-74.084077">
        <ele>304.082726</ele>
        <time>2024-05-18T11:55:00.000Z</time>
      </trkpt>
      <trkpt lat="41.260421" lon="-74.083819">
        <ele>302.40831</ele>
        <time>2024-05-18T11:55:03.000Z</time>
      </trkpt>
      <trkpt lat="41.260087" lon="-74.083324">
        <ele>298.893991</ele>
        <time>2024-05-18T11:55:09.000Z</time>
      </trkpt>
      <trkpt lat="41.259235" lon="-74.082741">
        <ele>292.257703</ele>
        <time>2024-05-18T11:55:20.000Z</time>
      </trkpt>
      <trkpt lat="41.259105" lon="-74.082582">
        <ele>291.144175</ele>
        <time>2024-05-18T11:55:22.000Z</time>
      </trkpt>
      <trkpt lat="41.259056" lon="-74.082407">
        <ele>290.251173</ele>
        <time>2024-05-18T11:55:24.000Z</time>
      </trkpt>
      <trkpt lat="41.259052" lon="-74.082271">
        <ele>289.590575</ele>
        <time>2024-05-18T11:55:25.000Z</time>
      </trkpt>
      <trkpt lat="41.258959" lon="-74.081875">
        <ele>287.613903</ele>
        <time>2024-05-18T11:55:28.000Z</time>
      </trkpt>
      <trkpt lat="41.258546" lon="-74.081288">
        <ele>283.647315</ele>
        <time>2024-05-18T11:55:35.000Z</time>
      </trkpt>
      <trkpt lat="41.257761" lon="-74.079165">
        <ele>278.315256</ele>
        <time>2024-05-18T11:55:55.000Z</time>
      </trkpt>
      <trkpt lat="41.257892" lon="-74.07758">
        <ele>277.478285</ele>
        <time>2024-05-18T11:56:08.000Z</time>
      </trkpt>
      <trkpt lat="41.257858" lon="-74.07714">
        <ele>277.371846</ele>
        <time>2024-05-18T11:56:12.000Z</time>
      </trkpt>
      <trkpt lat="41.257728" lon="-74.076419">
        <ele>277.036174</ele>
        <time>2024-05-18T11:56:18.000Z</time>
      </trkpt>
      <trkpt lat="41.257381" lon="-74.075699">
        <ele>275.75695</ele>
        <time>2024-05-18T11:56:25.000Z</time>
      </trkpt>
      <trkpt lat="41.257183" lon="-74.075249">
        <ele>274.992405</ele>
        <time>2024-05-18T11:56:29.000Z</time>
      </trkpt>
      <trkpt lat="41.257106" lon="-74.074679">
        <ele>274.128531</ele>
        <time>2024-05-18T11:56:34.000Z</time>
      </trkpt>
      <trkpt lat="41.256833" lon="-74.073664">
        <ele>271.339763</ele>
        <time>2024-05-18T11:56:43.000Z</time>
      </trkpt>
      <trkpt lat="41.256462" lon="-74.072865">
        <ele>268.54087</ele>
        <time>2024-05-18T11:56:51.000Z</time>
      </trkpt>
      <trkpt lat="41.25623" lon="-74.07198">
        <ele>265.431505</ele>
        <time>2024-05-18T11:56:59.000Z</time>
      </trkpt>
      <trkpt lat="41.256261" lon="-74.071184">
        <ele>262.253895</ele>
        <time>2024-05-18T11:57:06.000Z</time>
      </trkpt>
      <trkpt lat="41.256036" lon="-74.070272">
        <ele>258.455155</ele>
        <time>2024-05-18T11:57:14.000Z</time>
      </trkpt>
      <trkpt lat="41.255986" lon="-74.069706">
        <ele>255.658695</ele>
        <time>2024-05-18T11:57:19.000Z</time>
      </trkpt>
      <trkpt lat="41.25586" lon="-74.06936">
        <ele>253.10299</ele>
        <time>2024-05-18T11:57:22.000Z</time>
      </trkpt>
      <trkpt lat="41.255277" lon="-74.068402">
        <ele>244.881467</ele>
        <time>2024-05-18T11:57:32.000Z</time>
      </trkpt>
      <trkpt lat="41.254065" lon="-74.067315">
        <ele>233.260178</ele>
        <time>2024-05-18T11:57:48.000Z</time>
      </trkpt>
      <trkpt lat="41.25317" lon="-74.066652">
        <ele>226.760346</ele>
        <time>2024-05-18T11:57:59.000Z</time>
      </trkpt>
      <trkpt lat="41.252952" lon="-74.066439">
        <ele>226.102933</ele>
        <time>2024-05-18T11:58:02.000Z</time>
      </trkpt>
      <trkpt lat="41.252847" lon="-74.066342">
        <ele>225.782242</ele>
        <time>2024-05-18T11:58:03.000Z</time>
      </trkpt>
      <trkpt lat="41.252286" lon="-74.065965">
        <ele>224.215428</ele>
        <time>2024-05-18T11:58:10.000Z</time>
      </trkpt>
      <trkpt lat="41.252089" lon="-74.065729">
        <ele>223.588419</ele>
        <time>2024-05-18T11:58:13.000Z</time>
      </trkpt>
      <trkpt lat="41.251745" lon="-74.065041">
        <ele>221.905784</ele>
        <time>2024-05-18T11:58:20.000Z</time>
      </trkpt>
      <trkpt lat="41.251633" lon="-74.064567">
        <ele>220.807837</ele>
        <time>2024-05-18T11:58:24.000Z</time>
      </trkpt>
      <trkpt lat="41.251595" lon="-74.064304">
        <ele>220.220106</ele>
        <time>2024-05-18T11:58:26.000Z</time>
      </trkpt>
      <trkpt lat="41.251579" lon="-74.064053">
        <ele>219.690401</ele>
        <time>2024-05-18T11:58:28.000Z</time>
      </trkpt>
      <trkpt lat="41.251571" lon="-74.063745">
        <ele>218.99219</ele>
        <time>2024-05-18T11:58:31.000Z</time>
      </trkpt>
      <trkpt lat="41.251455" lon="-74.063219">
        <ele>217.822821</ele>
        <time>2024-05-18T11:58:36.000Z</time>
      </trkpt>
      <trkpt lat="41.251192" lon="-74.062574">
        <ele>215.80103</ele>
        <time>2024-05-18T11:58:42.000Z</time>
      </trkpt>
      <trkpt lat="41.251074" lon="-74.062094">
        <ele>214.365311</ele>
        <time>2024-05-18T11:58:46.000Z</time>
      </trkpt>
      <trkpt lat="41.250922" lon="-74.061175">
        <ele>211.734697</ele>
        <time>2024-05-18T11:58:54.000Z</time>
      </trkpt>
      <trkpt lat="41.250662" lon="-74.060078">
        <ele>208.039199</ele>
        <time>2024-05-18T11:59:04.000Z</time>
      </trkpt>
      <trkpt lat="41.250691" lon="-74.059824">
        <ele>207.173138</ele>
        <time>2024-05-18T11:59:06.000Z</time>
      </trkpt>
      <trkpt lat="41.250923" lon="-74.059503">
        <ele>205.708633</ele>
        <time>2024-05-18T11:59:10.000Z</time>
      </trkpt>
      <trkpt lat="41.251152" lon="-74.058737">
        <ele>202.979163</ele>
        <time>2024-05-18T11:59:17.000Z</time>
      </trkpt>
      <trkpt lat="41.252307" lon="-74.057031">
        <ele>193.122465</ele>
        <time>2024-05-18T11:59:36.000Z</time>
      </trkpt>
      <trkpt lat="41.252463" lon="-74.056593">
        <ele>191.442448</ele>
        <time>2024-05-18T11:59:40.000Z</time>
      </trkpt>
      <trkpt lat="41.252566" lon="-74.05581">
        <ele>188.788626</ele>
        <time>2024-05-18T11:59:47.000Z</time>
      </trkpt>
      <trkpt lat="41.252456" lon="-74.05545">
        <ele>187.488817</ele>
        <time>2024-05-18T11:59:50.000Z</time>
      </trkpt>
      <trkpt lat="41.252151" lon="-74.054777">
        <ele>184.791179</ele>
        <time>2024-05-18T11:59:57.000Z</time>
      </trkpt>
      <trkpt lat="41.251996" lon="-74.054203">
        <ele>182.75101</ele>
        <time>2024-05-18T12:00:02.000Z</time>
      </trkpt>
      <trkpt lat="41.251929" lon="-74.053406">
        <ele>179.994255</ele>
        <time>2024-05-18T12:00:09.000Z</time>
      </trkpt>
      <trkpt lat="41.251911" lon="-74.052295">
        <ele>176.134664</ele>
        <time>2024-05-18T12:00:18.000Z</time>
      </trkpt>
      <trkpt lat="41.251809" lon="-74.051596">
        <ele>172.964709</ele>
        <time>2024-05-18T12:00:24.000Z</time>
      </trkpt>
      <trkpt lat="41.2517" lon="-74.051279">
        <ele>171.442234</ele>
        <time>2024-05-18T12:00:27.000Z</time>
      </trkpt>
      <trkpt lat="41.251188" lon="-74.050274">
        <ele>165.993613</ele>
        <time>2024-05-18T12:00:37.000Z</time>
      </trkpt>
      <trkpt lat="41.250957" lon="-74.049708">
        <ele>163.409516</ele>
        <time>2024-05-18T12:00:42.000Z</time>
      </trkpt>
      <trkpt lat="41.250796" lon="-74.049113">
        <ele>160.843516</ele>
        <time>2024-05-18T12:00:47.000Z</time>
      </trkpt>
      <trkpt lat="41.250625" lon="-74.048286">
        <ele>157.384417</ele>
        <time>2024-05-18T12:00:54.000Z</time>
      </trkpt>
      <trkpt lat="41.250166" lon="-74.046242">
        <ele>152.10271</ele>
        <time>2024-05-18T12:01:12.000Z</time>
      </trkpt>
      <trkpt lat="41.250052" lon="-74.045761">
        <ele>150.954538</ele>
        <time>2024-05-18T12:01:16.000Z</time>
      </trkpt>
      <trkpt lat="41.250042" lon="-74.045237">
        <ele>151.4403</ele>
        <time>2024-05-18T12:01:20.000Z</time>
      </trkpt>
      <trkpt lat="41.250156" lon="-74.045153">
        <ele>151.607516</ele>
        <time>2024-05-18T12:01:21.000Z</time>
      </trkpt>
      <trkpt lat="41.25026" lon="-74.045235">
        <ele>151.774147</ele>
        <time>2024-05-18T12:01:22.000Z</time>
      </trkpt>
      <trkpt lat="41.250584" lon="-74.046259">
        <ele>152.838856</ele>
        <time>2024-05-18T12:01:31.000Z</time>
      </trkpt>
      <trkpt lat="41.25073" lon="-74.047176">
        <ele>155.922222</ele>
        <time>2024-05-18T12:01:39.000Z</time>
      </trkpt>
      <trkpt lat="41.25075" lon="-74.048264">
        <ele>161.361117</ele>
        <time>2024-05-18T12:01:48.000Z</time>
      </trkpt>
      <trkpt lat="41.250663" lon="-74.049017">
        <ele>165.198011</ele>
        <time>2024-05-18T12:01:54.000Z</time>
      </trkpt>
      <trkpt lat="41.250541" lon="-74.049662">
        <ele>170.552003</ele>
        <time>2024-05-18T12:02:00.000Z</time>
      </trkpt>
      <trkpt lat="41.250352" lon="-74.050322">
        <ele>176.38333</ele>
        <time>2024-05-18T12:02:06.000Z</time>
      </trkpt>
      <trkpt lat="41.250055" lon="-74.051074">
        <ele>183.268843</ele>
        <time>2024-05-18T12:02:13.000Z</time>
      </trkpt>
      <trkpt lat="41.249638" lon="-74.051788">
        <ele>189.830299</ele>
        <time>2024-05-18T12:02:21.000Z</time>
      </trkpt>
      <trkpt lat="41.249183" lon="-74.052373">
        <ele>195.804252</ele>
        <time>2024-05-18T12:02:28.000Z</time>
      </trkpt>
      <trkpt lat="41.24868" lon="-74.052839">
        <ele>201.430358</ele>
        <time>2024-05-18T12:02:35.000Z</time>
      </trkpt>
      <trkpt lat="41.248087" lon="-74.05326">
        <ele>208.281238</ele>
        <time>2024-05-18T12:02:43.000Z</time>
      </trkpt>
      <trkpt lat="41.247412" lon="-74.053569">
        <ele>215.381539</ele>
        <time>2024-05-18T12:02:51.000Z</time>
      </trkpt>
      <trkpt lat="41.246923" lon="-74.053649">
        <ele>220.371299</ele>
        <time>2024-05-18T12:02:57.000Z</time>
      </trkpt>
      <trkpt lat="41.244983" lon="-74.053836">
        <ele>241.228412</ele>
        <time>2024-05-18T12:03:19.000Z</time>
      </trkpt>
      <trkpt lat="41.244661" lon="-74.053898">
        <ele>243.762784</ele>
        <time>2024-05-18T12:03:23.000Z</time>
      </trkpt>
      <trkpt lat="41.243999" lon="-74.05416">
        <ele>249.2461</ele>
        <time>2024-05-18T12:03:31.000Z</time>
      </trkpt>
      <trkpt lat="41.24294" lon="-74.054833">
        <ele>256.73351</ele>
        <time>2024-05-18T12:03:44.000Z</time>
      </trkpt>
      <trkpt lat="41.241801" lon="-74.055893">
        <ele>263.368957</ele>
        <time>2024-05-18T12:03:59.000Z</time>
      </trkpt>
      <trkpt lat="41.241082" lon="-74.05687">
        <ele>268.413366</ele>
        <time>2024-05-18T12:04:10.000Z</time>
      </trkpt>
      <trkpt lat="41.240586" lon="-74.057691">
        <ele>272.609934</ele>
        <time>2024-05-18T12:04:19.000Z</time>
      </trkpt>
      <trkpt lat="41.240199" lon="-74.058479">
        <ele>277.178639</ele>
        <time>2024-05-18T12:04:27.000Z</time>
      </trkpt>
      <trkpt lat="41.239919" lon="-74.059221">
        <ele>281.286722</ele>
        <time>2024-05-18T12:04:34.000Z</time>
      </trkpt>
      <trkpt lat="41.239869" lon="-74.059336">
        <ele>281.948972</ele>
        <time>2024-05-18T12:04:35.000Z</time>
      </trkpt>
      <trkpt lat="41.239639" lon="-74.060143">
        <ele>285.692524</ele>
        <time>2024-05-18T12:04:42.000Z</time>
      </trkpt>
      <trkpt lat="41.239358" lon="-74.061231">
        <ele>290.532493</ele>
        <time>2024-05-18T12:04:52.000Z</time>
      </trkpt>
      <trkpt lat="41.239251" lon="-74.062075">
        <ele>294.131732</ele>
        <time>2024-05-18T12:04:59.000Z</time>
      </trkpt>
      <trkpt lat="41.239245" lon="-74.063015">
        <ele>298.158832</ele>
        <time>2024-05-18T12:05:07.000Z</time>
      </trkpt>
      <trkpt lat="41.239326" lon="-74.06401">
        <ele>302.36346</ele>
        <time>2024-05-18T12:05:15.000Z</time>
      </trkpt>
      <trkpt lat="41.239478" lon="-74.064846">
        <ele>305.692384</ele>
        <time>2024-05-18T12:05:22.000Z</time>
      </trkpt>
      <trkpt lat="41.239952" lon="-74.066603">
        <ele>312.268843</ele>
        <time>2024-05-18T12:05:38.000Z</time>
      </trkpt>
      <trkpt lat="41.24007" lon="-74.067177">
        <ele>312.894791</ele>
        <time>2024-05-18T12:05:43.000Z</time>
      </trkpt>
      <trkpt lat="41.24011" lon="-74.06806">
        <ele>313.815934</ele>
        <time>2024-05-18T12:05:50.000Z</time>
      </trkpt>
      <trkpt lat="41.239996" lon="-74.068898">
        <ele>314.550712</ele>
        <time>2024-05-18T12:05:57.000Z</time>
      </trkpt>
      <trkpt lat="41.239817" lon="-74.069438">
        <ele>314.236164</ele>
        <time>2024-05-18T12:06:02.000Z</time>
      </trkpt>
      <trkpt lat="41.239805" lon="-74.069427">
        <ele>314.236156</ele>
        <time>2024-05-18T12:06:02.000Z</time>
      </trkpt>
      <trkpt lat="41.23982" lon="-74.069439">
        <ele>314.236163</ele>
        <time>2024-05-18T12:06:02.000Z</time>
      </trkpt>
      <trkpt lat="41.239464" lon="-74.069989">
        <ele>313.847333</ele>
        <time>2024-05-18T12:06:08.000Z</time>
      </trkpt>
      <trkpt lat="41.239018" lon="-74.070243">
        <ele>313.50629</ele>
        <time>2024-05-18T12:06:13.000Z</time>
      </trkpt>
      <trkpt lat="41.239027" lon="-74.070233">
        <ele>313.5063</ele>
        <time>2024-05-18T12:06:13.000Z</time>
      </trkpt>
      <trkpt lat="41.238498" lon="-74.070284">
        <ele>312.94151</ele>
        <time>2024-05-18T12:06:19.000Z</time>
      </trkpt>
      <trkpt lat="41.2385" lon="-74.070291">
        <ele>312.941506</ele>
        <time>2024-05-18T12:06:19.000Z</time>
      </trkpt>
      <trkpt lat="41.23792" lon="-74.070053">
        <ele>312.095095</ele>
        <time>2024-05-18T12:06:26.000Z</time>
      </trkpt>
      <trkpt lat="41.237331" lon="-74.069837">
        <ele>311.248953</ele>
        <time>2024-05-18T12:06:33.000Z</time>
      </trkpt>
      <trkpt lat="41.236827" lon="-74.069849">
        <ele>310.661389007</ele>
        <time>2024-05-18T12:06:39.000Z</time>
      </trkpt>
      <trkpt lat="41.236065" lon="-74.070124">
        <ele>309.741062702</ele>
        <time>2024-05-18T12:06:48.000Z</time>
      </trkpt>
      <trkpt lat="41.235279" lon="-74.070409">
        <ele>308.791440978</ele>
        <time>2024-05-18T12:06:57.000Z</time>
      </trkpt>
    </trkseg>
  </trk>
</gpx>

<!--
Performance optimized by W3 Total Cache. Learn more: https://www.boldgrid.com/w3-total-cache/?utm_source=w3tc&utm_medium=footer_comment&utm_campaign=free_plugin

Page Caching using Disk: Enhanced{w3tc_pagecache_reject_reason} 

Served from: www.aquabike.world @ 2026-05-10 23:00:16 by W3 Total Cache
-->